Latest Weather Observations for Laverton

IDV60901

Issued at 2:51 am EST Sunday 20 August 2017 (issued every 10 minutes, with the page automatically refreshed every 10 minutes)

About weather observations | Map of Melbourne area stations | Latest observations for Melbourne area | Other Formats
Station Details ID: 087031 Name: LAVERTON RAAF Lat: -37.86 Lon: 144.76 Height: 20.1 m
Data from the previous 72 hours. | See also: Recent months at Laverton
Date/Time
EST
Temp
°C
App
Temp
°C
Dew
Point
°C
Rel
Hum
%
Delta-T
°C
Wind Press
QNH
hPa
Press
MSL
hPa
Rain since
9am
mm
Dir  Spd
km/h
Gust
km/h
Spd
kts
Gust
kts
20/02:30am 2.1 -1.7 2.0 99 0.0 NW 11 13 6 7 1026.9 1026.9 2.0
20/02:00am 2.3 -0.7 2.0 98 0.1 NNW 7 11 4 6 1027.0 1027.0 2.0
20/01:30am 2.9 -0.8 2.3 96 0.2 NW 11 11 6 6 1026.9 1026.9 2.0
20/01:00am 3.5 0.6 2.6 94 0.4 NW 7 9 4 5 1027.2 1027.2 2.0
20/12:30am 3.7 -0.3 2.7 93 0.4 WNW 13 15 7 8 1027.6 1027.6 2.0
20/12:00am 4.1 1.3 2.9 92 0.5 WNW 7 11 4 6 1027.9 1027.9 2.0
 
Date/Time
EST
Temp
°C
App
Temp
°C
Dew
Point
°C
Rel
Hum
%
Delta-T
°C
Wind Press
QNH
hPa
Press
MSL
hPa
Rain since
9am
mm
Dir  Spd
km/h
Gust
km/h
Spd
kts
Gust
kts
19/11:30pm 4.7 1.9 3.4 91 0.5 WNW 7 9 4 5 1028.0 1028.0 2.0
19/11:00pm 6.2 4.4 3.7 84 1.0 WSW 2 7 1 4 1027.6 1027.6 2.0
19/10:30pm 7.8 5.0 3.3 73 1.9 SW 7 11 4 6 1027.8 1027.8 2.0
19/10:00pm 8.0 4.7 4.8 80 1.4 WSW 11 19 6 10 1027.9 1027.9 2.0
19/09:30pm 8.0 4.7 4.8 80 1.4 WSW 11 17 6 9 1027.8 1027.8 2.0
19/09:00pm 8.3 5.8 4.5 77 1.7 WSW 7 11 4 6 1027.7 1027.7 2.0
19/08:30pm 8.6 6.0 4.2 74 1.9 WSW 7 13 4 7 1027.6 1027.6 2.0
19/08:00pm 8.6 6.0 4.0 73 2.0 WSW 7 9 4 5 1027.5 1027.5 2.0
19/07:30pm 8.2 5.5 3.7 73 1.9 WSW 7 11 4 6 1027.5 1027.5 2.0
19/07:00pm 8.2 5.6 3.1 70 2.1 S 6 7 3 4 1027.5 1027.5 2.0
19/06:30pm 8.5 5.3 3.1 69 2.3 S 9 13 5 7 1027.4 1027.4 2.0
19/06:00pm 9.2 5.6 2.8 64 2.7 S 11 17 6 9 1027.4 1027.4 2.0
19/05:30pm 9.4 5.3 2.5 62 2.9 S 13 19 7 10 1027.1 1027.1 2.0
19/05:00pm 10.4 5.2 2.3 57 3.4 S 19 26 10 14 1026.9 1026.9 2.0
19/04:30pm 10.9 5.3 1.2 51 4.0 S 20 28 11 15 1026.8 1026.8 2.0
19/04:00pm 11.0 6.3 3.1 58 3.4 SSE 17 22 9 12 1026.6 1026.6 1.8
19/03:30pm 11.4 7.7 4.2 61 3.2 SSE 13 20 7 11 1026.5 1026.5 1.8
19/03:00pm 11.1 7.4 4.6 64 2.9 S 13 19 7 10 1026.6 1026.6 1.8
19/02:30pm 10.8 7.4 4.0 63 3.0 SSE 11 17 6 9 1026.6 1026.6 1.8
19/02:00pm 11.5 6.9 5.4 66 2.8 SSW 19 30 10 16 1026.8 1026.8 1.8
19/01:30pm 10.8 7.4 5.8 71 2.3 SSW 13 17 7 9 1026.7 1026.7 1.8
19/01:00pm 10.0 5.9 6.0 76 1.8 SSW 17 20 9 11 1026.9 1026.9 1.8
19/12:30pm 10.8 7.2 4.9 67 2.7 S 13 19 7 10 1026.8 1026.8 1.8
19/12:00pm 10.1 6.6 5.3 72 2.2 S 13 20 7 11 1026.9 1026.9 1.8
19/11:30am 9.2 5.6 5.0 75 1.9 SW 13 19 7 10 1027.0 1027.0 1.8
19/11:00am 7.8 5.3 6.4 91 0.6 SW 9 15 5 8 1027.1 1027.1 1.8
19/10:53am 7.4 5.2 6.2 92 0.5 SW 7 13 4 7 1027.1 1027.1 1.8
19/10:30am 6.7 0.6 4.7 87 0.9 SSW 26 43 14 23 1027.4 1027.4 1.0
19/10:28am 7.1 1.4 4.8 85 1.0 SW 24 43 13 23 1027.4 1027.4 0.8
19/10:27am 7.5 2.2 5.0 84 1.1 SW 22 43 12 23 1027.3 1027.3 0.6
19/10:00am 8.4 4.0 4.8 78 1.6 WSW 17 22 9 12 1026.8 1026.8 0.0
19/09:30am 7.9 4.1 5.7 86 1.0 WSW 15 20 8 11 1026.7 1026.7 0.0
19/09:00am 6.1 2.5 4.9 92 0.5 W 13 17 7 9 1026.3 1026.3 8.0
19/08:30am 5.8 2.2 4.9 94 0.4 SW 13 20 7 11 1026.1 1026.1 7.6
19/08:18am 5.6 2.3 4.7 94 0.4 W 11 17 6 9 1025.7 1025.7 7.4
19/08:03am 5.4 2.1 4.7 95 0.3 WSW 11 19 6 10 1025.3 1025.3 7.4
19/08:00am 5.4 2.1 4.7 95 0.3 WSW 11 19 6 10 1025.4 1025.4 7.2
19/07:30am 4.3 1.1 3.1 92 0.5 W 9 11 5 6 1025.0 1025.0 7.0
19/07:00am 5.1 1.3 3.8 91 0.5 WSW 13 19 7 10 1024.5 1024.5 7.0
19/06:30am 5.3 0.4 4.1 92 0.5 WSW 19 24 10 13 1023.8 1023.8 7.0
19/06:00am 5.2 0.6 3.9 91 0.5 W 17 24 9 13 1023.1 1023.1 7.0
19/05:30am 5.7 0.8 3.9 88 0.8 WSW 19 28 10 15 1022.9 1022.9 7.0
19/05:00am 5.4 1.9 3.6 88 0.7 W 11 15 6 8 1022.4 1022.4 7.0
19/04:30am 5.3 0.8 4.1 92 0.5 W 17 22 9 12 1022.2 1022.2 7.0
19/04:00am 5.6 0.5 4.2 91 0.6 WSW 20 26 11 14 1021.9 1021.9 7.0
19/03:30am 5.5 1.4 4.3 92 0.5 W 15 22 8 12 1021.8 1021.8 7.0
19/03:00am 5.4 0.9 4.2 92 0.5 W 17 20 9 11 1021.5 1021.5 7.0
19/02:30am 5.4 1.4 4.7 95 0.3 W 15 22 8 12 1021.5 1021.5 7.0
19/02:00am 5.8 1.4 4.9 94 0.4 W 17 26 9 14 1021.5 1021.5 7.0
19/01:42am 6.0 1.7 5.3 95 0.3 W 17 24 9 13 1021.4 1021.4 7.0
19/01:30am 6.2 1.4 5.5 95 0.3 W 20 28 11 15 1021.4 1021.4 7.0
19/01:28am 6.3 1.5 5.6 95 0.3 W 20 28 11 15 1021.4 1021.4 7.0
19/01:00am 6.3 1.6 5.3 93 0.4 W 19 24 10 13 1021.1 1021.1 6.6
19/12:30am 6.5 1.3 5.3 92 0.5 W 22 32 12 17 1021.0 1021.0 6.4
19/12:17am 6.4 1.6 5.5 94 0.4 WSW 20 37 11 20 1021.3 1021.3 6.2
19/12:00am 6.3 2.3 5.1 92 0.5 WSW 15 22 8 12 1020.9 1020.9 5.8
 
Date/Time
EST
Temp
°C
App
Temp
°C
Dew
Point
°C
Rel
Hum
%
Delta-T
°C
Wind Press
QNH
hPa
Press
MSL
hPa
Rain since
9am
mm
Dir  Spd
km/h
Gust
km/h
Spd
kts
Gust
kts
18/11:30pm 7.1 3.0 4.4 83 1.2 WSW 15 28 8 15 1020.9 1020.9 5.2
18/11:00pm 7.2 2.4 4.5 83 1.2 WSW 19 26 10 14 1020.4 1020.4 5.2
18/10:30pm 7.2 2.4 4.5 83 1.2 WSW 19 28 10 15 1020.3 1020.3 5.0
18/10:00pm 7.2 3.2 4.7 84 1.1 W 15 20 8 11 1019.9 1019.9 5.0
18/09:30pm 7.4 2.5 4.9 84 1.1 WSW 20 28 11 15 1019.5 1019.5 5.0
18/09:00pm 7.4 3.0 4.5 82 1.3 W 17 24 9 13 1019.2 1019.2 5.0
18/08:30pm 7.5 3.0 4.1 79 1.5 W 17 24 9 13 1018.8 1018.8 5.0
18/08:00pm 7.8 4.1 4.4 79 1.5 W 13 20 7 11 1018.4 1018.4 5.0
18/07:30pm 8.2 3.4 4.8 79 1.5 WSW 19 26 10 14 1018.0 1018.0 5.0
18/07:00pm 8.6 3.7 5.0 78 1.6 WSW 20 28 11 15 1017.5 1017.5 5.0
18/06:30pm 8.4 4.1 5.2 80 1.4 WSW 17 24 9 13 1016.8 1016.8 5.0
18/06:00pm 8.3 3.5 5.4 82 1.3 WSW 20 28 11 15 1016.4 1016.4 5.0
18/05:30pm 8.7 3.3 4.7 76 1.8 W 22 33 12 18 1015.7 1015.7 4.8
18/05:00pm 9.1 3.7 4.7 74 2.0 W 22 33 12 18 1015.1 1015.1 4.8
18/04:30pm 9.4 3.3 4.6 72 2.1 W 26 35 14 19 1014.7 1014.7 4.8
18/04:00pm 9.9 3.7 4.1 67 2.6 WSW 26 39 14 21 1014.0 1014.0 4.8
18/03:30pm 10.3 4.3 5.1 70 2.4 WSW 26 35 14 19 1013.5 1013.5 4.8
18/03:00pm 9.5 5.1 6.6 82 1.4 WSW 19 39 10 21 1013.3 1013.3 4.8
18/02:50pm 8.7 3.6 6.0 83 1.2 WSW 22 30 12 16 1013.2 1013.2 4.8
18/02:30pm 9.2 3.4 6.3 82 1.3 WSW 26 43 14 23 1013.0 1013.0 4.2
18/02:29pm 9.5 3.7 6.2 80 1.5 WSW 26 43 14 23 1013.0 1013.0 4.2
18/02:00pm 10.4 3.8 6.0 74 2.0 W 30 43 16 23 1012.1 1012.1 3.6
18/01:30pm 10.4 4.3 6.5 77 1.8 W 28 37 15 20 1011.9 1011.9 3.6
18/01:00pm 8.7 3.4 6.7 87 0.9 W 24 41 13 22 1011.8 1011.8 3.6
18/12:47pm 7.1 2.4 6.0 93 0.5 W 20 30 11 16 1011.7 1011.7 3.6
18/12:30pm 6.1 -2.9 4.7 91 0.6 SW 41 65 22 35 1012.0 1012.0 3.4
18/12:22pm 7.0 -2.4 4.7 85 1.0 SW 43 63 23 34 1011.9 1011.9 1.4
18/12:18pm 9.1 0.6 5.3 77 1.7 WSW 39 54 21 29 1011.4 1011.5 0.4
18/12:00pm 11.6 3.7 4.3 61 3.3 W 35 54 19 29 1010.7 1010.8 0.0
18/11:30am 11.3 3.3 3.8 60 3.3 W 35 54 19 29 1010.6 1010.7 0.0
18/11:00am 10.4 2.4 3.9 64 2.9 W 35 59 19 32 1010.4 1010.5 0.0
18/10:46am 10.5 2.5 4.0 64 2.9 W 35 54 19 29 1010.1 1010.2 0.0
18/10:30am 10.1 2.1 3.6 64 2.8 W 35 50 19 27 1010.2 1010.3 0.0
18/10:14am 10.2 2.2 3.9 65 2.8 W 35 54 19 29 1009.9 1010.0 0.0
18/10:00am 9.9 1.2 4.1 67 2.6 W 39 54 21 29 1009.7 1009.8 0.0
18/09:30am 9.2 1.6 3.8 69 2.4 WNW 33 57 18 31 1009.0 1009.1 0.0
18/09:00am 7.6 -0.4 3.6 76 1.7 WNW 35 54 19 29 1008.8 1008.9 3.4
18/08:30am 8.3 -0.5 3.6 72 2.0 WNW 39 59 21 32 1008.6 1008.7 3.4
18/08:19am 8.5 1.1 3.9 73 2.0 WNW 32 50 17 27 1008.3 1008.4 3.4
18/08:00am 8.0 1.0 4.0 76 1.7 WNW 30 41 16 22 1008.1 1008.2 3.4
18/07:30am 7.5 1.6 3.9 78 1.5 WNW 24 37 13 20 1007.5 1007.6 3.4
18/07:00am 7.3 0.6 3.9 79 1.5 WNW 28 35 15 19 1007.1 1007.2 3.4
18/06:30am 7.5 0.8 3.9 78 1.5 WNW 28 43 15 23 1006.6 1006.7 3.4
18/06:00am 7.6 0.8 3.3 74 1.8 WNW 28 37 15 20 1006.2 1006.3 3.4
18/05:30am 7.6 1.2 3.1 73 1.9 WNW 26 43 14 23 1005.8 1005.9 3.4
18/05:00am 7.6 1.6 3.3 74 1.8 WNW 24 35 13 19 1005.4 1005.5 3.4
18/04:30am 7.8 1.0 3.1 72 2.0 WNW 28 39 15 21 1004.9 1005.0 3.4
18/04:00am 7.8 1.0 3.3 73 1.9 WNW 28 35 15 19 1004.7 1004.8 3.4
18/03:31am 7.8 0.7 3.3 73 1.9 WNW 30 48 16 26 1004.2 1004.3 3.4
18/03:30am 7.5 0.3 3.2 74 1.8 WNW 30 39 16 21 1004.3 1004.4 3.4
18/03:00am 7.5 0.8 3.4 75 1.8 NW 28 39 15 21 1003.9 1004.0 3.4
18/02:30am 6.8 0.4 3.2 78 1.5 NW 26 33 14 18 1003.9 1004.0 3.4
18/02:00am 6.8 0.1 3.4 79 1.4 NW 28 32 15 17 1004.3 1004.4 3.4
18/01:30am 6.2 0.9 3.2 81 1.3 NW 20 24 11 13 1004.4 1004.5 3.4
18/01:00am 7.0 1.4 3.4 78 1.5 NW 22 28 12 15 1004.1 1004.2 3.4
18/12:30am 6.7 2.8 3.5 80 1.4 NW 13 20 7 11 1004.4 1004.5 3.4
18/12:00am 6.5 3.0 3.5 81 1.3 NNW 11 15 6 8 1004.6 1004.7 3.4
 
Date/Time
EST
Temp
°C
App
Temp
°C
Dew
Point
°C
Rel
Hum
%
Delta-T
°C
Wind Press
QNH
hPa
Press
MSL
hPa
Rain since
9am
mm
Dir  Spd
km/h
Gust
km/h
Spd
kts
Gust
kts
17/11:30pm 6.7 2.8 3.5 80 1.4 NW 13 15 7 8 1004.3 1004.4 3.4
17/11:00pm 6.8 2.5 3.4 79 1.4 NW 15 19 8 10 1004.0 1004.1 3.4
17/10:30pm 7.9 1.6 3.8 75 1.8 WNW 26 39 14 21 1003.8 1003.9 3.4
17/10:00pm 7.7 2.2 4.1 78 1.6 NW 22 32 12 17 1003.8 1003.9 3.4
17/09:30pm 7.3 2.4 3.9 79 1.5 NW 19 28 10 15 1003.9 1004.0 3.4
17/09:00pm 7.3 2.2 3.9 79 1.5 NW 20 24 11 13 1003.6 1003.7 3.4
17/08:30pm 8.0 2.2 4.4 78 1.6 NW 24 32 13 17 1003.4 1003.5 3.4
17/08:00pm 7.1 3.2 5.3 88 0.8 NNW 15 22 8 12 1003.4 1003.5 3.4
17/07:30pm 7.0 2.1 5.0 87 0.9 NW 20 24 11 13 1003.6 1003.7 3.4
17/07:03pm 7.3 0.9 5.0 85 1.0 WNW 28 41 15 22 1003.5 1003.6 3.4
17/07:00pm 7.3 0.5 5.0 85 1.0 WNW 30 41 16 22 1003.7 1003.8 3.4
17/06:52pm 7.6 0.4 5.1 84 1.1 W 32 54 17 29 1004.0 1004.1 3.2
17/06:43pm 9.3 4.6 6.0 80 1.5 WNW 20 52 11 28 1004.0 1004.1 3.2
17/06:30pm 9.1 4.6 6.0 81 1.4 NW 19 24 10 13 1003.0 1003.1 3.0
17/06:00pm 8.9 5.2 6.3 84 1.2 NW 15 20 8 11 1002.2 1002.3 3.0
17/05:30pm 8.9 4.4 6.3 84 1.2 NW 19 24 10 13 1002.0 1002.1 3.0
17/05:00pm 9.4 5.0 7.5 88 0.9 NW 20 28 11 15 1001.9 1002.0 3.0
17/04:37pm 9.2 5.4 7.6 90 0.8 W 17 24 9 13 1002.0 1002.1 3.0
17/04:30pm 9.2 5.0 7.6 90 0.8 W 19 26 10 14 1002.0 1002.1 3.0
17/04:11pm 10.9 3.8 6.3 73 2.2 WSW 33 74 18 40 1001.9 1002.0 0.6
17/04:10pm 11.8 5.2 6.1 68 2.7 WSW 30 74 16 40 1001.6 1001.6 0.0
17/04:09pm 12.6 6.3 5.8 63 3.2 WSW 28 48 15 26 1001.4 1001.4 0.0
17/04:00pm 12.8 6.4 5.0 59 3.6 WSW 28 43 15 23 1000.8 1000.8 0.0
17/03:30pm 14.7 7.8 4.4 50 4.8 WNW 30 43 16 23 1000.7 1000.7 0.0
17/03:00pm 14.4 6.6 4.7 52 4.5 NW 35 48 19 26 1000.6 1000.6 0.0
17/02:30pm 14.0 5.5 3.2 48 4.8 WNW 37 54 20 29 1000.6 1000.6 0.0
17/02:18pm 14.3 5.4 4.9 53 4.4 NW 41 59 22 32 1000.4 1000.4 0.0
17/02:00pm 14.2 5.3 5.3 55 4.2 WNW 41 54 22 29 1000.7 1000.7 0.0
17/01:34pm 15.1 7.6 4.2 48 5.0 WNW 33 52 18 28 1000.4 1000.4 0.0
17/01:30pm 14.6 6.7 4.6 51 4.6 WNW 35 50 19 27 1000.5 1000.5 0.0
17/01:22pm 15.4 7.3 5.3 51 4.8 WNW 37 56 20 30 1000.7 1000.7 0.0
17/01:00pm 15.2 5.9 5.1 51 4.8 NW 43 54 23 29 1000.7 1000.7 0.0
17/12:40pm 15.3 6.8 5.2 51 4.8 WNW 39 57 21 31 1000.7 1000.7 0.0
17/12:30pm 14.6 4.5 4.0 49 4.9 WNW 46 63 25 34 1000.6 1000.6 0.0
17/12:23pm 15.2 5.6 4.6 49 4.9 WNW 44 63 24 34 1000.6 1000.6 0.0
17/12:00pm 14.5 5.8 4.2 50 4.8 WNW 39 54 21 29 1000.8 1000.8 0.0
17/11:30am 14.0 5.2 5.4 56 4.0 WNW 41 59 22 32 1000.8 1000.8 0.0
17/11:21am 14.0 5.7 6.1 59 3.8 WNW 39 57 21 31 1000.8 1000.8 0.0
17/11:00am 13.2 6.4 7.0 66 3.0 WNW 32 43 17 23 1001.0 1001.0 0.0
17/10:46am 12.1 6.0 6.6 69 2.6 WNW 28 44 15 24 1001.1 1001.1 0.0
17/10:30am 11.2 6.6 6.5 73 2.2 NW 20 26 11 14 1001.3 1001.3 0.0
17/10:00am 9.8 5.1 6.2 78 1.7 NNW 20 26 11 14 1001.8 1001.8 0.0
17/09:30am 9.1 3.1 5.5 78 1.6 NNW 26 35 14 19 1001.5 1001.5 0.0
17/09:00am 8.2 3.4 5.8 85 1.1 NW 20 32 11 17 1001.7 1001.7 1.8
17/08:30am 8.1 1.8 5.6 84 1.1 NNW 28 39 15 21 1002.1 1002.2 1.8
17/08:00am 9.9 2.5 4.9 71 2.3 NW 33 44 18 24 1002.0 1002.1 0.8
17/07:52am 10.8 4.5 5.6 70 2.4 NW 28 39 15 21 1001.8 1001.8 0.8
17/07:30am 10.5 7.0 7.0 79 1.7 NNW 15 20 8 11 1001.6 1001.6 0.8
17/07:00am 10.3 6.3 6.8 79 1.7 NW 17 22 9 12 1001.6 1001.6 0.8
17/06:30am 10.6 6.2 6.4 75 2.0 NW 19 24 10 13 1001.3 1001.3 0.8
17/06:00am 10.8 6.3 6.2 73 2.2 NW 19 26 10 14 1001.1 1001.1 0.8
17/05:30am 10.2 6.2 6.5 78 1.7 NW 17 22 9 12 1001.3 1001.3 0.8
17/05:00am 9.6 6.2 6.1 79 1.6 NNW 13 20 7 11 1001.2 1001.2 0.8
17/04:30am 10.1 5.6 6.3 77 1.8 NW 19 24 10 13 1001.0 1001.0 0.8
17/04:00am 10.9 5.5 6.3 73 2.2 NW 24 33 13 18 1001.0 1001.0 0.8
17/03:30am 11.2 6.3 6.7 74 2.1 NW 22 33 12 18 1001.0 1001.0 0.8
17/03:00am 11.0 6.7 7.1 77 1.9 NW 19 24 10 13 1001.4 1001.4 0.8

Latest Capital City Observations: Canberra | Sydney | Melbourne | Brisbane | Adelaide | Perth | Hobart | Darwin

Other Formats:

Comma delimited format used in spreadsheet applications
http://www.bom.gov.au/fwo/IDV60901/IDV60901.94865.axf

JavaScript Object Notation format (JSON) in row-major order
http://www.bom.gov.au/fwo/IDV60901/IDV60901.94865.json